Time;durP1;ratioP1;P1;durP2;ratioP2;P2;SDS_P1;SDS_P2;PMS_P1;PMS_P2;Temp;Humidity;BMP_temperature;BMP_pressure;BME280_temperature;BME280_humidity;BME280_pressure;Samples;Min_cycle;Max_cycle;Signal;HPM_P1;HPM_P2
2022/07/25 00:01:08;;;;;;;5.03;4.08;;;;;;;19.23;80.66;99626.45;1770524;81;21177;-80
2022/07/25 00:04:15;;;;;;;6.62;4.10;;;;;;;19.21;80.86;99624.48;1770652;80;21718;-80
2022/07/25 00:07:21;;;;;;;6.70;4.37;;;;;;;19.19;81.13;99626.64;1770708;80;21750;-81
2022/07/25 00:10:28;;;;;;;8.15;4.42;;;;;;;19.19;81.42;99634.41;1771525;81;21173;-80
2022/07/25 00:13:33;;;;;;;5.92;4.20;;;;;;;19.20;81.61;99636.12;1771973;81;21162;-81
2022/07/25 00:16:40;;;;;;;6.70;3.85;;;;;;;19.21;81.69;99631.41;1770712;81;21185;-81
2022/07/25 00:19:47;;;;;;;9.53;4.47;;;;;;;19.22;81.83;99630.31;1770955;80;21222;-81
2022/07/25 00:22:53;;;;;;;6.28;3.92;;;;;;;19.23;81.98;99626.45;1770625;80;21157;-80
2022/07/25 00:25:59;;;;;;;10.13;4.95;;;;;;;19.23;81.85;99622.28;1770803;80;21185;-80
2022/07/25 00:29:06;;;;;;;6.85;4.20;;;;;;;19.22;81.89;99621.45;1770804;80;21161;-81
2022/07/25 00:32:12;;;;;;;8.70;4.53;;;;;;;19.20;81.72;99621.42;1770552;81;21782;-81
2022/07/25 00:35:19;;;;;;;8.05;4.08;;;;;;;19.17;81.56;99617.20;1770587;81;21292;-80
2022/07/25 00:38:25;;;;;;;6.95;4.55;;;;;;;19.16;81.66;99618.30;1770589;81;21687;-81
2022/07/25 00:41:24;;;;;;;7.60;4.33;;;;;;;19.14;81.81;99620.46;1770723;81;21173;-81
2022/07/25 00:44:35;;;;;;;6.22;4.30;;;;;;;19.15;81.89;99621.62;1771911;81;21710;-80
2022/07/25 00:47:41;;;;;;;10.28;4.28;;;;;;;19.15;82.00;99618.84;1770478;80;21178;-81
2022/07/25 00:50:48;;;;;;;7.67;4.17;;;;;;;19.16;82.06;99611.37;1771307;81;21739;-81
2022/07/25 00:53:55;;;;;;;6.92;4.25;;;;;;;19.16;81.63;99609.98;1772028;81;21146;-81
2022/07/25 00:57:02;;;;;;;5.28;4.12;;;;;;;19.15;81.41;99606.38;1771940;81;21205;-81
2022/07/25 01:00:10;;;;;;;9.25;4.22;;;;;;;19.18;81.08;99606.95;1771719;81;21173;-80
2022/07/25 01:03:15;;;;;;;7.05;4.40;;;;;;;19.19;80.85;99605.30;1771399;81;21788;-80
2022/07/25 01:06:21;;;;;;;6.47;4.30;;;;;;;19.22;80.87;99603.43;1770812;81;21837;-81
2022/07/25 01:09:28;;;;;;;10.88;4.25;;;;;;;19.25;80.95;99603.49;1771991;81;21647;-81
2022/07/25 01:12:33;;;;;;;10.20;4.55;;;;;;;19.28;81.17;99597.42;1770857;81;21221;-81
2022/07/25 01:15:39;;;;;;;13.55;4.37;;;;;;;19.31;81.53;99596.94;1771365;81;21173;-81
2022/07/25 01:18:46;;;;;;;5.28;4.22;;;;;;;19.34;81.81;99596.45;1771316;81;21185;-81
2022/07/25 01:21:52;;;;;;;9.88;4.40;;;;;;;19.40;81.79;99595.43;1770514;81;21189;-81
2022/07/25 01:24:58;;;;;;;9.33;4.40;;;;;;;19.45;81.62;99591.35;1771862;81;21205;-81
2022/07/25 01:28:03;;;;;;;7.50;3.92;;;;;;;19.50;82.57;99596.98;1771716;81;21154;-81
2022/07/25 01:31:09;;;;;;;7.87;3.77;;;;;;;19.52;82.75;99596.72;1770999;81;21730;-81
2022/07/25 01:34:15;;;;;;;12.82;4.90;;;;;;;19.51;82.72;99591.72;1771120;81;21181;-81
2022/07/25 01:37:22;;;;;;;10.80;4.97;;;;;;;19.49;82.62;99588.38;1771937;81;21745;-81
2022/07/25 01:40:27;;;;;;;7.10;4.47;;;;;;;19.47;82.69;99593.31;1771663;81;21189;-80
2022/07/25 01:43:33;;;;;;;5.75;4.33;;;;;;;19.47;82.67;99598.86;1770487;81;21718;-80
2022/07/25 01:46:40;;;;;;;7.42;4.40;;;;;;;19.44;82.62;99581.36;1770680;81;21185;-80
2022/07/25 01:49:47;;;;;;;5.50;4.35;;;;;;;19.41;82.67;99576.30;1770875;81;21185;-81
2022/07/25 01:52:53;;;;;;;9.00;4.58;;;;;;;19.40;82.67;99577.41;1771350;81;21193;-81
2022/07/25 01:55:59;;;;;;;7.55;4.62;;;;;;;19.41;82.62;99567.44;1771110;81;21201;-81
2022/07/25 01:59:06;;;;;;;10.93;5.25;;;;;;;19.44;82.69;99566.11;1771909;81;21161;-80
2022/07/25 02:02:15;;;;;;;10.35;4.67;;;;;;;19.45;83.03;99570.55;1771705;81;21233;-80
2022/07/25 02:05:20;;;;;;;8.78;4.50;;;;;;;19.48;83.26;99573.35;1771353;80;21499;-80
2022/07/25 02:08:25;;;;;;;11.65;4.87;;;;;;;19.45;83.44;99571.10;1771993;81;21197;-80
2022/07/25 02:11:33;;;;;;;8.98;5.50;;;;;;;19.41;83.63;99579.08;1770772;81;21256;-80
2022/07/25 02:14:38;;;;;;;8.68;5.47;;;;;;;19.35;84.08;99566.23;1772000;81;21154;-80
2022/07/25 02:17:44;;;;;;;8.08;5.12;;;;;;;19.33;84.74;99576.72;1771902;81;21181;-80
2022/07/25 02:20:51;;;;;;;10.63;5.00;;;;;;;19.32;85.46;99570.33;1770385;81;21162;-80
2022/07/25 02:23:57;;;;;;;12.18;4.85;;;;;;;19.32;85.74;99573.66;1770770;81;21727;-80
2022/07/25 02:27:04;;;;;;;10.60;5.15;;;;;;;19.34;85.85;99563.17;1771953;81;21185;-80
2022/07/25 02:30:10;;;;;;;10.00;6.33;;;;;;;19.37;85.75;99569.03;1771673;81;21220;-81
2022/07/25 02:33:16;;;;;;;5.70;4.65;;;;;;;19.44;85.50;99565.27;1770480;81;21154;-81
2022/07/25 02:36:21;;;;;;;10.28;5.33;;;;;;;19.50;85.10;99563.70;1770934;81;21193;-81
2022/07/25 02:39:28;;;;;;;15.32;5.35;;;;;;;19.56;84.75;99565.45;1771892;81;21205;-81
2022/07/25 02:42:34;;;;;;;9.20;5.50;;;;;;;19.61;84.05;99572.50;1771850;81;21182;-80
2022/07/25 02:45:40;;;;;;;8.83;5.20;;;;;;;19.68;83.17;99584.83;1771376;81;21177;-80
2022/07/25 02:48:46;;;;;;;8.70;5.05;;;;;;;19.74;82.18;99593.52;1771874;81;21318;-79
2022/07/25 02:51:51;;;;;;;8.58;5.28;;;;;;;19.77;81.30;99593.56;1770456;81;21197;-80
2022/07/25 02:54:57;;;;;;;10.45;5.10;;;;;;;19.78;80.57;99584.14;1771746;81;21194;-80
2022/07/25 02:58:04;;;;;;;8.48;5.15;;;;;;;19.87;79.72;99589.55;1771966;81;21146;-79
2022/07/25 03:01:10;;;;;;;5.58;4.40;;;;;;;19.98;78.89;99589.15;1771012;81;21189;-80
2022/07/25 03:04:16;;;;;;;9.80;4.90;;;;;;;20.08;78.46;99592.90;1770908;81;21761;-80
2022/07/25 03:07:21;;;;;;;12.73;5.05;;;;;;;20.19;78.16;99581.41;1780566;80;21181;-80
2022/07/25 03:10:27;;;;;;;8.03;4.40;;;;;;;20.29;77.68;99582.09;1785311;80;22137;-80
2022/07/25 03:13:32;;;;;;;9.50;5.42;;;;;;;20.36;77.32;99584.11;1785503;80;21211;-80
2022/07/25 03:16:39;;;;;;;10.53;5.22;;;;;;;20.43;76.86;99582.83;1784545;80;21169;-80
2022/07/25 03:19:46;;;;;;;14.53;5.90;;;;;;;20.50;76.27;99584.05;1784142;80;21173;-79
2022/07/25 03:22:52;;;;;;;8.38;5.50;;;;;;;20.54;76.01;99578.82;1785752;80;21157;-80
2022/07/25 03:25:57;;;;;;;7.67;5.67;;;;;;;20.58;75.97;99575.81;1784891;80;21753;-80
2022/07/25 03:29:03;;;;;;;10.10;5.25;;;;;;;20.62;75.97;99570.88;1785845;80;21157;-80
2022/07/25 03:32:07;;;;;;;7.30;4.70;;;;;;;20.65;76.14;99575.92;1780903;80;21684;-80
2022/07/25 03:35:15;;;;;;;11.53;5.95;;;;;;;20.67;76.49;99580.66;1758661;80;21206;-80
2022/07/25 03:38:19;;;;;;;11.57;5.03;;;;;;;20.72;76.57;99587.38;1771725;80;21670;-80
2022/07/25 03:41:26;;;;;;;14.55;6.10;;;;;;;20.75;76.52;99579.36;1769750;80;21162;-79
2022/07/25 03:44:32;;;;;;;10.95;5.50;;;;;;;20.79;76.37;99577.71;1770843;80;21167;-81
2022/07/25 03:47:40;;;;;;;10.60;5.37;;;;;;;20.86;76.30;99574.75;1768498;80;21147;-79
2022/07/25 03:50:47;;;;;;;16.67;6.62;;;;;;;20.91;76.23;99571.47;1772235;80;21147;-80
2022/07/25 03:54:01;;;;;;;14.05;6.08;;;;;;;20.97;75.95;99570.96;1770811;80;21700;-80
2022/07/25 03:57:10;;;;;;;15.05;6.80;;;;;;;21.05;75.43;99571.88;1771686;80;21145;-80
2022/07/25 04:00:17;;;;;;;18.37;7.30;;;;;;;21.11;75.04;99577.77;1767722;80;21233;-81
2022/07/25 04:03:24;;;;;;;9.25;5.97;;;;;;;21.17;74.66;99578.66;1718677;83;21163;-80
2022/07/25 04:06:30;;;;;;;18.23;7.10;;;;;;;21.24;74.35;99578.45;1717849;83;21186;-81
2022/07/25 04:09:37;;;;;;;16.70;8.00;;;;;;;21.30;74.05;99577.39;1700243;84;21283;-81
2022/07/25 04:12:44;;;;;;;23.02;7.45;;;;;;;21.38;73.98;99573.61;1709358;84;21263;-80
2022/07/25 04:15:51;;;;;;;18.70;7.92;;;;;;;21.47;73.94;99580.09;1708098;84;21258;-80
2022/07/25 04:18:58;;;;;;;15.23;7.47;;;;;;;21.54;73.80;99582.91;1708187;83;21761;-81
2022/07/25 04:22:04;;;;;;;20.02;7.85;;;;;;;21.61;73.27;99580.76;1708513;84;21787;-80
2022/07/25 04:25:10;;;;;;;26.45;8.73;;;;;;;21.68;72.96;99579.95;1708152;84;21246;-80
2022/07/25 04:28:15;;;;;;;29.52;9.63;;;;;;;21.78;72.65;99581.14;1709401;84;21239;-80
2022/07/25 04:31:22;;;;;;;28.87;11.93;;;;;;;21.80;72.26;99580.34;1708417;84;21202;-81
2022/07/25 04:34:28;;;;;;;33.45;11.57;;;;;;;21.83;71.96;99583.43;1709237;84;21218;-80
2022/07/25 04:37:36;;;;;;;26.90;10.10;;;;;;;21.86;71.45;99580.65;1708370;84;21219;-80
2022/07/25 04:40:41;;;;;;;23.18;10.23;;;;;;;21.89;71.47;99577.34;1708845;84;21787;-80
2022/07/25 04:43:48;;;;;;;26.25;10.68;;;;;;;21.91;71.86;99569.55;1708165;83;21262;-81
2022/07/25 04:46:53;;;;;;;27.82;11.08;;;;;;;21.89;71.83;99574.00;1708084;84;21198;-80
2022/07/25 04:50:00;;;;;;;27.13;11.38;;;;;;;21.91;71.49;99568.16;1709342;84;21218;-81
2022/07/25 04:53:06;;;;;;;27.22;10.78;;;;;;;21.93;71.29;99570.12;1708074;84;21229;-79
2022/07/25 04:56:12;;;;;;;29.35;12.05;;;;;;;21.93;71.10;99571.52;1708281;84;21262;-80
2022/07/25 04:59:18;;;;;;;36.45;11.90;;;;;;;21.95;71.12;99572.08;1709602;84;21565;-80
2022/07/25 05:02:23;;;;;;;26.40;11.00;;;;;;;21.95;71.26;99563.73;1728139;82;21184;-79
2022/07/25 05:05:29;;;;;;;26.45;10.78;;;;;;;21.94;71.81;99567.06;1734670;81;21782;-79
2022/07/25 05:08:35;;;;;;;29.10;11.18;;;;;;;21.95;72.09;99560.39;1737193;82;21797;-80
2022/07/25 05:11:42;;;;;;;50.88;20.17;;;;;;;21.98;72.22;99567.94;1715822;82;21556;-80
2022/07/25 05:14:49;;;;;;;53.83;19.67;;;;;;;22.01;73.24;99584.91;1741143;82;21263;-81
2022/07/25 05:17:56;;;;;;;37.10;15.93;;;;;;;22.01;73.16;99573.78;1741763;82;21164;-80
2022/07/25 05:21:03;;;;;;;44.05;14.98;;;;;;;22.01;73.09;99577.12;1725034;82;21209;-80
2022/07/25 05:24:10;;;;;;;32.10;13.20;;;;;;;22.01;73.22;99569.60;1716763;82;21200;-80
2022/07/25 05:27:17;;;;;;;30.60;11.83;;;;;;;21.98;73.43;99574.34;1724163;83;21237;-81
2022/07/25 05:30:24;;;;;;;30.37;12.03;;;;;;;21.97;73.57;99569.85;1725986;83;21268;-80
2022/07/25 05:33:31;;;;;;;35.78;13.15;;;;;;;21.96;73.75;99562.61;1734274;83;21182;-81
2022/07/25 05:36:37;;;;;;;29.45;12.03;;;;;;;21.97;74.04;99569.02;1724184;83;21797;-80
2022/07/25 05:39:44;;;;;;;29.37;11.60;;;;;;;21.99;74.17;99562.64;1727569;83;21510;-81
2022/07/25 05:42:50;;;;;;;31.62;12.20;;;;;;;22.00;74.16;99569.88;1733965;82;21165;-81
2022/07/25 05:45:57;;;;;;;27.70;11.33;;;;;;;22.03;74.31;99570.19;1717319;82;21189;-80
2022/07/25 05:49:04;;;;;;;30.20;11.55;;;;;;;22.05;74.28;99558.21;1733101;82;21730;-79
2022/07/25 05:52:10;;;;;;;32.48;11.00;;;;;;;22.08;74.37;99554.06;1733074;81;21296;-80
2022/07/25 05:55:16;;;;;;;23.83;10.18;;;;;;;22.10;74.46;99552.67;1730787;81;21203;-80
2022/07/25 05:58:21;;;;;;;22.98;10.05;;;;;;;22.12;74.51;99556.07;1718676;83;21169;-80
2022/07/25 06:01:27;;;;;;;25.15;11.18;;;;;;;22.17;74.60;99556.09;1722584;83;21194;-80
2022/07/25 06:04:35;;;;;;;25.12;10.78;;;;;;;22.20;74.62;99553.30;1732731;83;21726;-80
2022/07/25 06:07:41;;;;;;;30.40;9.50;;;;;;;22.25;74.52;99562.23;1732660;83;21790;-81
2022/07/25 06:10:48;;;;;;;24.57;9.20;;;;;;;22.28;74.56;99554.19;1732238;82;21213;-81
2022/07/25 06:13:54;;;;;;;19.20;9.33;;;;;;;22.35;74.54;99567.88;1733356;82;21172;-80
2022/07/25 06:17:02;;;;;;;23.62;10.40;;;;;;;22.37;74.60;99555.34;1729186;82;21177;-81
2022/07/25 06:20:14;;;;;;;22.52;9.30;;;;;;;22.40;74.66;99565.12;1729252;82;21196;-80
2022/07/25 06:23:20;;;;;;;24.40;10.15;;;;;;;22.40;74.78;99560.94;1715295;82;21228;-80
2022/07/25 06:26:26;;;;;;;21.95;11.25;;;;;;;22.39;75.01;99557.29;1727648;82;21315;-80
2022/07/25 06:29:32;;;;;;;24.35;10.08;;;;;;;22.39;75.30;99547.53;1727134;82;21174;-81
2022/07/25 06:32:37;;;;;;;20.30;9.18;;;;;;;22.42;75.47;99542.83;1728454;82;21594;-81
2022/07/25 06:35:42;;;;;;;25.08;9.90;;;;;;;22.45;75.54;99537.28;1730842;82;21192;-79
2022/07/25 06:38:49;;;;;;;23.50;8.80;;;;;;;22.51;75.59;99533.39;1712005;83;21203;-80
2022/07/25 06:41:58;;;;;;;18.90;7.95;;;;;;;22.55;75.58;99531.73;1733195;82;21221;-79
2022/07/25 06:45:04;;;;;;;23.95;8.73;;;;;;;22.60;75.32;99528.95;1732490;82;21189;-79
2022/07/25 06:48:10;;;;;;;19.95;7.92;;;;;;;22.67;74.99;99527.29;1727706;82;21256;-81
2022/07/25 06:51:19;;;;;;;18.42;7.90;;;;;;;22.70;74.64;99519.22;1730535;82;21828;-80
2022/07/25 06:54:28;;;;;;;19.12;7.70;;;;;;;22.74;74.83;99527.87;1725672;82;21177;-81
2022/07/25 06:57:34;;;;;;;15.95;7.42;;;;;;;22.79;74.69;99527.89;1735255;82;21224;-81
2022/07/25 07:00:41;;;;;;;19.57;7.35;;;;;;;22.85;74.43;99530.13;1721193;82;21155;-81
2022/07/25 07:03:47;;;;;;;15.38;6.72;;;;;;;22.90;74.13;99519.01;1720016;82;21185;-80
2022/07/25 07:06:53;;;;;;;16.62;7.50;;;;;;;22.98;73.86;99518.47;1726642;83;21232;-80
2022/07/25 07:10:03;;;;;;;16.35;7.80;;;;;;;23.05;73.62;99513.44;1730962;82;21172;-80
2022/07/25 07:13:18;;;;;;;15.38;7.10;;;;;;;23.09;73.13;99515.95;1740848;81;21605;-81
2022/07/25 07:16:29;;;;;;;18.90;7.10;;;;;;;23.14;73.17;99514.56;1731406;81;21315;-80
2022/07/25 07:19:37;;;;;;;13.75;7.28;;;;;;;23.23;72.71;99512.63;1739158;81;21178;-79
2022/07/25 07:22:55;;;;;;;18.48;7.42;;;;;;;23.27;72.68;99512.34;1733118;82;21725;-79
2022/07/25 07:26:00;;;;;;;15.40;7.55;;;;;;;23.35;72.54;99513.19;1733999;82;21794;-79
2022/07/25 07:29:06;;;;;;;16.30;7.67;;;;;;;23.40;72.11;99509.00;1714456;83;21145;-81
2022/07/25 07:32:13;;;;;;;16.80;7.72;;;;;;;23.44;71.95;99500.35;1714397;83;21201;-80
2022/07/25 07:35:18;;;;;;;16.62;7.47;;;;;;;23.47;71.79;99506.75;1704654;83;21227;-80
2022/07/25 07:38:25;;;;;;;17.32;7.65;;;;;;;23.57;71.48;99511.48;1718544;83;21209;-82
2022/07/25 07:41:32;;;;;;;15.15;7.50;;;;;;;23.65;70.78;99510.95;1724707;82;21255;-80
2022/07/25 07:44:38;;;;;;;18.40;7.90;;;;;;;23.76;70.14;99518.73;1722821;82;21149;-80
2022/07/25 07:47:46;;;;;;;17.30;8.70;;;;;;;23.89;69.98;99513.96;1720019;82;21237;-80
2022/07/25 07:50:53;;;;;;;20.52;8.90;;;;;;;24.08;70.27;99515.02;1729628;82;21273;-80
2022/07/25 07:57:21;;;;;;;15.83;7.50;;;;;;;24.55;68.92;99519.88;1730195;82;21220;-80
2022/07/25 08:00:30;;;;;;;17.80;8.53;;;;;;;24.82;67.02;99523.65;1738973;81;21211;-80
2022/07/25 08:03:33;;;;;;;26.65;8.23;;;;;;;25.09;66.44;99524.06;1693543;83;21153;-80
2022/07/25 08:06:39;;;;;;;17.87;7.67;;;;;;;25.47;65.66;99521.51;1708872;83;21213;-80
2022/07/25 08:09:46;;;;;;;21.27;7.95;;;;;;;25.82;63.33;99527.34;1712795;83;21201;-80
2022/07/25 08:12:58;;;;;;;22.37;7.37;;;;;;;26.10;62.05;99531.24;1714416;82;21193;-81
2022/07/25 08:16:06;;;;;;;21.00;8.18;;;;;;;26.39;60.84;99535.94;1715963;82;21190;-79
2022/07/25 08:19:12;;;;;;;19.70;7.80;;;;;;;26.64;58.72;99545.47;1712996;83;21138;-79
2022/07/25 08:22:17;;;;;;;14.33;6.90;;;;;;;26.78;58.37;99546.14;1754363;81;21134;-79
2022/07/25 08:25:27;;;;;;;15.00;7.28;;;;;;;26.88;58.80;99539.80;1764472;81;21175;-79
2022/07/25 08:28:32;;;;;;;14.45;7.53;;;;;;;26.99;57.73;99539.08;1692496;84;21247;-79
2022/07/25 08:31:41;;;;;;;12.88;7.40;;;;;;;27.07;56.63;99534.19;1764195;81;21252;-81
2022/07/25 08:34:47;;;;;;;14.28;6.05;;;;;;;27.15;56.53;99545.34;1766385;81;21175;-80
2022/07/25 08:37:52;;;;;;;12.47;5.10;;;;;;;27.08;55.42;99549.91;1764540;80;21142;-80
2022/07/25 08:41:01;;;;;;;8.85;4.00;;;;;;;27.02;54.83;99555.31;1759048;81;21169;-79
2022/07/25 08:44:08;;;;;;;11.70;4.33;;;;;;;27.02;54.17;99553.91;1760795;81;21738;-79
2022/07/25 08:47:14;;;;;;;7.97;4.78;;;;;;;27.01;53.95;99553.09;1765979;80;21184;-80
2022/07/25 08:50:22;;;;;;;12.37;4.97;;;;;;;27.06;54.33;99552.17;1760907;80;21194;-80
2022/07/25 08:53:29;;;;;;;10.20;5.22;;;;;;;27.07;52.66;99551.03;1766966;81;21161;-79
2022/07/25 08:56:34;;;;;;;15.70;6.28;;;;;;;27.06;53.86;99538.14;1762864;80;21153;-80
2022/07/25 08:59:40;;;;;;;10.15;6.15;;;;;;;27.09;53.67;99545.97;1762844;81;21133;-80
2022/07/25 09:02:46;;;;;;;11.53;5.62;;;;;;;27.11;54.46;99538.66;1692585;84;21152;-81
2022/07/25 09:05:53;;;;;;;29.65;8.00;;;;;;;27.21;53.82;99532.89;1769920;81;21149;-81
2022/07/25 09:09:07;;;;;;;15.72;8.28;;;;;;;27.34;53.49;99534.92;1765146;80;21219;-81
2022/07/25 09:12:15;;;;;;;21.30;9.93;;;;;;;27.32;53.98;99541.39;1769278;79;21649;-81
2022/07/25 09:15:34;;;;;;;14.53;8.00;;;;;;;27.28;54.80;99537.53;1706248;82;21211;-81
2022/07/25 09:18:42;;;;;;;12.03;5.97;;;;;;;27.17;54.46;99533.23;1774048;80;21753;-81
2022/07/25 09:21:48;;;;;;;9.78;5.17;;;;;;;27.08;55.33;99542.04;1794406;80;21756;-81
2022/07/25 09:24:55;;;;;;;11.08;5.10;;;;;;;26.99;55.00;99547.49;1771495;80;21212;-80
2022/07/25 09:28:01;;;;;;;4.70;3.27;;;;;;;26.95;55.36;99545.03;1780014;80;21209;-81
2022/07/25 09:31:08;;;;;;;8.08;2.70;;;;;;;26.75;54.19;99546.98;1789206;80;21216;-81
2022/07/25 09:34:13;;;;;;;4.05;2.90;;;;;;;26.57;52.20;99539.39;1788817;80;21188;-81
2022/07/25 09:37:22;;;;;;;9.70;2.92;;;;;;;26.50;52.49;99538.94;1783841;80;21160;-81
2022/07/25 09:40:27;;;;;;;7.20;3.30;;;;;;;26.57;52.93;99533.78;1779840;80;21177;-81
2022/07/25 09:43:48;;;;;;;7.03;4.20;;;;;;;26.67;54.64;99533.63;1769652;80;21157;-82
2022/07/25 09:46:54;;;;;;;6.60;4.95;;;;;;;26.65;55.58;99538.72;1780297;80;21189;-79
2022/07/25 09:50:00;;;;;;;8.93;6.12;;;;;;;26.46;56.98;99537.86;1780685;80;21204;-79
2022/07/25 09:53:07;;;;;;;7.37;4.72;;;;;;;26.31;57.81;99528.22;1778583;80;21129;-79
2022/07/25 09:56:14;;;;;;;8.45;4.83;;;;;;;26.16;57.59;99531.47;1783851;79;21176;-79
2022/07/25 09:59:20;;;;;;;11.60;4.28;;;;;;;26.02;56.68;99526.85;1776153;79;21726;-79
2022/07/25 10:03:08;;;;;;;16.17;5.72;;;;;;;25.92;60.94;99541.81;1759017;80;21172;-79
2022/07/25 10:06:38;;;;;;;12.53;3.72;;;;;;;25.61;68.03;99544.89;1764879;80;21158;-79
2022/07/25 10:09:58;;;;;;;4.17;2.83;;;;;;;24.99;69.46;99535.30;1771917;80;21243;-79
2022/07/25 10:13:22;;;;;;;3.87;2.87;;;;;;;24.62;68.78;99534.40;1776480;80;21189;-81
2022/07/25 10:16:31;;;;;;;3.37;2.00;;;;;;;24.46;68.95;99534.45;1777558;79;21179;-81
2022/07/25 10:19:46;;;;;;;3.77;2.10;;;;;;;24.47;69.90;99531.13;1780893;80;21129;-80
2022/07/25 10:22:54;;;;;;;4.12;2.60;;;;;;;24.42;71.56;99531.15;1782761;80;21154;-81
2022/07/25 10:26:18;;;;;;;13.00;2.83;;;;;;;24.37;73.31;99520.83;1772812;80;21129;-80
2022/07/25 10:29:25;;;;;;;6.12;3.10;;;;;;;24.32;74.48;99522.75;1735494;82;22070;-80
2022/07/25 10:32:45;;;;;;;7.42;4.20;;;;;;;24.27;75.44;99532.55;1771613;80;21152;-80
2022/07/25 10:35:52;;;;;;;8.28;4.58;;;;;;;24.29;75.57;99537.31;1772784;80;21709;-81
2022/07/25 10:39:03;;;;;;;7.80;5.05;;;;;;;24.19;76.54;99534.00;1775502;80;21141;-81
2022/07/25 10:42:09;;;;;;;6.95;5.30;;;;;;;24.13;76.21;99535.12;1777567;79;21185;-81
2022/07/25 10:45:16;;;;;;;7.67;5.62;;;;;;;24.12;76.70;99530.09;1747720;80;21224;-81
2022/07/25 10:48:36;;;;;;;7.67;6.17;;;;;;;24.10;77.72;99533.75;1781923;80;21153;-79
2022/07/25 10:51:42;;;;;;;;;;;;;;;24.08;77.60;99522.56;1785170;80;21777;-82
2022/07/25 10:54:47;;;;;;;10.40;7.00;;;;;;;24.08;78.57;99526.19;1782475;80;20240;-81
2022/07/25 10:57:53;;;;;;;9.28;6.67;;;;;;;24.14;79.43;99522.28;1780822;79;21251;-79
2022/07/25 11:01:00;;;;;;;11.97;6.58;;;;;;;24.30;79.89;99523.05;1779973;80;21793;-80
2022/07/25 11:04:09;;;;;;;9.50;6.85;;;;;;;24.59;81.51;99517.62;1780097;80;21137;-79
2022/07/25 11:07:21;;;;;;;8.80;7.87;;;;;;;24.95;81.07;99517.42;1765430;80;21147;-80
2022/07/25 11:10:35;;;;;;;10.55;7.37;;;;;;;25.31;80.90;99503.16;1771747;80;21425;-79
2022/07/25 11:13:49;;;;;;;7.80;6.95;;;;;;;25.61;78.21;99497.30;1772297;80;21200;-81
2022/07/25 11:16:58;;;;;;;9.98;6.95;;;;;;;25.81;75.56;99499.64;1736626;81;21165;-81
2022/07/25 11:20:09;;;;;;;9.58;6.75;;;;;;;26.04;75.55;99499.39;1751496;81;21199;-80
2022/07/25 11:23:14;;;;;;;9.58;6.00;;;;;;;26.27;74.47;99496.31;1750799;81;21185;-81
2022/07/25 11:26:19;;;;;;;12.98;6.70;;;;;;;26.51;70.25;99494.33;1738631;81;21199;-80
2022/07/25 11:29:29;;;;;;;8.95;6.15;;;;;;;26.67;68.25;99483.14;1681657;85;21217;-81
2022/07/25 11:32:35;;;;;;;9.60;6.42;;;;;;;26.93;68.53;99472.39;1658498;86;21229;-80
2022/07/25 11:35:41;;;;;;;8.50;6.53;;;;;;;27.19;67.44;99467.20;1675971;84;21212;-80
2022/07/25 11:38:48;;;;;;;10.05;5.87;;;;;;;27.49;67.40;99462.22;1710078;83;21207;-80
2022/07/25 11:42:06;;;;;;;7.35;5.62;;;;;;;27.64;64.68;99460.52;1709432;84;21164;-79
2022/07/25 11:45:30;;;;;;;5.97;5.05;;;;;;;27.77;63.59;99454.70;1721128;82;21187;-81
2022/07/25 11:48:44;;;;;;;4.90;4.45;;;;;;;27.88;63.53;99456.72;1713288;82;21185;-81
2022/07/25 11:51:51;;;;;;;8.60;4.03;;;;;;;27.92;62.21;99448.76;1707815;82;21217;-80
2022/07/25 11:55:11;;;;;;;10.32;4.55;;;;;;;27.94;59.24;99442.81;1698182;83;21777;-80
2022/07/25 11:58:18;;;;;;;7.47;4.70;;;;;;;27.96;58.31;99445.59;1700134;83;21193;-79
2022/07/25 12:01:23;;;;;;;7.62;4.28;;;;;;;27.96;58.42;99444.19;1699949;83;21225;-79
2022/07/25 12:04:30;;;;;;;8.28;4.33;;;;;;;27.98;58.58;99429.81;1701808;82;21228;-79
2022/07/25 12:07:51;;;;;;;9.15;4.15;;;;;;;28.10;58.04;99414.67;1699369;82;21197;-81
2022/07/25 12:10:58;;;;;;;8.40;3.85;;;;;;;28.22;54.22;99416.92;1704815;82;21212;-79
2022/07/25 12:14:10;;;;;;;5.70;3.90;;;;;;;28.16;53.75;99416.21;1682295;85;21229;-80
2022/07/25 12:17:17;;;;;;;12.30;4.70;;;;;;;27.98;54.25;99419.97;1721208;82;21217;-79
2022/07/25 12:20:27;;;;;;;8.13;4.00;;;;;;;27.80;54.72;99433.55;1716835;82;21724;-80
2022/07/25 12:23:27;;;;;;;8.03;4.70;;;;;;;27.51;55.06;99437.45;1722216;82;21173;-80
2022/07/25 12:26:33;;;;;;;5.17;3.60;;;;;;;27.22;55.67;99443.31;1726674;83;21208;-80
2022/07/25 12:29:38;;;;;;;17.75;4.95;;;;;;;26.93;56.69;99442.92;1729109;82;21260;-80
2022/07/25 12:32:45;;;;;;;8.58;4.85;;;;;;;26.59;65.29;99460.02;1724655;82;21202;-82
2022/07/25 12:35:51;;;;;;;23.12;6.42;;;;;;;25.54;72.77;99465.99;1718029;82;22078;-82
2022/07/25 12:38:57;;;;;;;15.23;5.35;;;;;;;24.01;79.07;99496.34;1728399;81;21698;-81
2022/07/25 12:42:06;;;;;;;22.40;6.35;;;;;;;22.93;83.82;99490.02;1727483;82;21224;-79
2022/07/25 12:45:08;;;;;;;16.42;4.97;;;;;;;22.52;88.27;99490.47;1686139;83;21237;-79
2022/07/25 12:48:01;;;;;;;11.53;4.70;;;;;;;22.44;92.96;99484.03;1684645;85;21161;-79
2022/07/25 12:50:46;;;;;;;6.90;3.90;;;;;;;22.46;96.53;99469.28;1703067;83;21194;-79
2022/07/25 12:53:43;;;;;;;9.93;4.00;;;;;;;22.54;97.60;99459.00;1712798;83;21170;-81
2022/07/25 12:56:47;;;;;;;6.78;3.92;;;;;;;22.61;95.39;99463.73;1704210;82;21159;-80
2022/07/25 12:59:46;;;;;;;8.00;4.72;;;;;;;22.81;95.05;99459.30;1729392;82;21757;-81
2022/07/25 13:02:54;;;;;;;6.97;4.78;;;;;;;23.06;95.53;99462.16;1732456;83;21228;-79
2022/07/25 13:05:59;;;;;;;10.98;4.95;;;;;;;23.27;94.07;99453.20;1736728;81;21207;-80
2022/07/25 13:09:07;;;;;;;10.13;4.75;;;;;;;23.47;94.98;99450.94;1740735;82;21501;-82
2022/07/25 13:12:15;;;;;;;8.80;5.33;;;;;;;23.66;93.96;99433.89;1699883;83;21185;-80
2022/07/25 13:15:26;;;;;;;7.00;4.65;;;;;;;23.84;92.08;99431.61;1724090;82;21739;-80
2022/07/25 13:18:30;;;;;;;6.15;4.50;;;;;;;24.02;90.49;99441.31;1731845;82;21200;-80
2022/07/25 13:21:37;;;;;;;6.62;3.80;;;;;;;24.13;87.99;99441.53;1766841;80;21201;-80
2022/07/25 13:24:42;;;;;;;4.50;3.67;;;;;;;24.21;87.04;99443.73;1765600;80;21221;-81
2022/07/25 13:27:49;;;;;;;9.50;4.37;;;;;;;24.27;86.42;99449.56;1750365;81;21227;-81
2022/07/25 13:30:56;;;;;;;6.35;4.17;;;;;;;24.38;82.92;99449.00;1767232;81;21157;-82
2022/07/25 13:34:02;;;;;;;10.65;3.95;;;;;;;24.37;81.64;99451.50;1772097;80;21157;-80
2022/07/25 13:37:08;;;;;;;4.70;3.40;;;;;;;24.38;82.55;99449.00;1785834;80;21161;-80
2022/07/25 13:40:14;;;;;;;4.70;3.45;;;;;;;24.43;83.95;99453.99;1785852;80;21821;-81
2022/07/25 13:43:20;;;;;;;6.78;3.20;;;;;;;24.48;80.08;99454.52;1779275;80;21191;-80
2022/07/25 13:46:26;;;;;;;3.87;3.00;;;;;;;24.51;79.59;99448.34;1739591;82;21775;-81
2022/07/25 13:49:31;;;;;;;3.92;3.00;;;;;;;24.57;78.96;99441.61;1739392;82;21151;-81
2022/07/25 13:52:36;;;;;;;2.83;2.45;;;;;;;24.68;78.02;99437.61;1739100;82;21250;-81
2022/07/25 13:55:43;;;;;;;12.13;2.02;;;;;;;24.81;76.12;99436.69;1738970;82;21206;-80
2022/07/25 13:58:48;;;;;;;3.10;2.15;;;;;;;24.92;74.02;99427.91;1750031;81;21170;-81
2022/07/25 14:01:55;;;;;;;2.87;2.40;;;;;;;25.04;73.19;99430.34;1769088;81;22106;-81
2022/07/25 14:05:01;;;;;;;6.58;2.87;;;;;;;25.09;72.43;99430.33;1770500;81;21225;-82
2022/07/25 14:08:02;;;;;;;2.83;2.60;;;;;;;25.11;71.22;99420.23;1776094;80;21149;-82
2022/07/25 14:11:14;;;;;;;4.37;2.87;;;;;;;25.13;72.23;99414.63;1784042;80;21816;-81
2022/07/25 14:14:22;;;;;;;3.92;2.70;;;;;;;25.12;71.01;99407.91;1757875;80;21242;-82
2022/07/25 14:17:28;;;;;;;3.67;2.92;;;;;;;25.14;71.14;99407.07;1739921;82;21234;-81
2022/07/25 14:20:34;;;;;;;3.72;2.85;;;;;;;25.16;71.20;99409.83;1752188;82;21744;-80
2022/07/25 14:23:40;;;;;;;7.62;2.95;;;;;;;25.17;71.91;99418.52;1752410;82;21158;-80
2022/07/25 14:26:48;;;;;;;3.05;2.80;;;;;;;25.17;72.08;99417.66;1751946;82;21194;-79
2022/07/25 14:29:54;;;;;;;4.15;2.65;;;;;;;25.15;71.82;99414.33;1776453;80;21236;-80
2022/07/25 14:33:00;;;;;;;3.33;2.92;;;;;;;25.15;70.97;99413.77;1782864;80;21229;-80
2022/07/25 14:36:06;;;;;;;6.72;3.00;;;;;;;25.16;70.40;99404.23;1782479;80;21856;-80
2022/07/25 14:39:11;;;;;;;3.22;2.90;;;;;;;25.18;70.01;99409.55;1782879;80;21208;-80